Euskara    
Meteorología y climatología de Navarra
Datos de la estación - Meteo Navarra

Estación de Estella GN

Altitud 486 m.


Datos desde el 14/01/2021 hasta el 15/01/2021 en horario solar
Los datos son PROVISIONALES

Anterior Página 1 de 1 Siguiente Descargar: Formato para Excel 2000 o superior   Formato csv   Formato para OpenOffice Calc
Fecha Temperatura Humedad relativa Radiación global Insolación Precipitación Vel. viento 10 m Vel. viento 10 m Dir. viento 10 m
°C % W/m² s l/m² m/s km/h °
14/01/2021 0:00 4.8 78 0.0 0 0.0 0.7 2.5 15
14/01/2021 0:10 4.7 78 0.0 0 0.0 0.7 2.4 12
14/01/2021 0:20 4.6 78 0.0 0 0.0 0.9 3.3 20
14/01/2021 0:30 4.6 78 0.0 0 0.0 1.3 4.5 10
14/01/2021 0:40 5.0 77 0.0 0 0.0 1.3 4.5 25
14/01/2021 0:50 5.0 76 0.0 0 0.0 1.2 4.4 23
14/01/2021 1:00 4.8 76 0.0 0 0.0 1.0 3.6 45
14/01/2021 1:10 4.2 78 0.0 0 0.0 1.0 3.7 38
14/01/2021 1:20 4.4 78 0.0 0 0.0 0.9 3.2 12
14/01/2021 1:30 4.4 78 0.0 0 0.0 1.2 4.5 21
14/01/2021 1:40 5.0 76 0.0 0 0.0 0.7 2.7 1
14/01/2021 1:50 4.8 78 0.0 0 0.0 1.0 3.7 357
14/01/2021 2:00 4.6 79 0.0 0 0.0 1.0 3.5 6
14/01/2021 2:10 5.0 77 0.0 0 0.0 0.8 2.8 6
14/01/2021 2:20 5.0 78 0.0 0 0.0 0.4 1.4 315
14/01/2021 2:30 4.9 79 0.0 0 0.0 0.7 2.5 343
14/01/2021 2:40 5.2 78 0.0 0 0.0 0.8 2.8 351
14/01/2021 2:50 5.5 76 0.0 0 0.0 1.1 3.9 16
14/01/2021 3:00 5.4 76 0.0 0 0.0 1.0 3.6 357
14/01/2021 3:10 5.4 76 0.0 0 0.0 1.1 3.9 1
14/01/2021 3:20 5.5 76 0.0 0 0.0 0.5 1.8 359
14/01/2021 3:30 5.3 77 0.0 0 0.0 0.6 2.1 295
14/01/2021 3:40 5.2 76 0.0 0 0.0 0.7 2.6 297
14/01/2021 3:50 5.2 76 0.0 0 0.0 1.0 3.5 308
14/01/2021 4:00 5.4 75 0.0 0 0.0 0.9 3.1 325
14/01/2021 4:10 5.2 76 0.0 0 0.0 0.6 2.3 331
14/01/2021 4:20 5.3 75 0.0 0 0.0 0.9 3.1 327
14/01/2021 4:30 5.4 75 0.0 0 0.0 0.5 1.7 324
14/01/2021 4:40 5.4 75 0.0 0 0.0 0.3 1.2 251
14/01/2021 4:50 5.4 75 0.0 0 0.0 0.4 1.6 300
14/01/2021 5:00 5.4 75 0.0 0 0.0 0.7 2.5 330
14/01/2021 5:10 5.4 75 0.0 0 0.0 0.6 2.2 266
14/01/2021 5:20 5.5 75 0.0 0 0.0 0.7 2.4 303
14/01/2021 5:30 5.5 75 0.0 0 0.0 0.3 1.2 313
14/01/2021 5:40 5.4 76 0.0 0 0.0 1.1 3.8 286
14/01/2021 5:50 5.4 75 0.0 0 0.0 1.2 4.3 274
14/01/2021 6:00 5.4 75 0.0 0 0.0 0.7 2.5 298
14/01/2021 6:10 5.4 75 0.0 0 0.0 0.9 3.2 287
14/01/2021 6:20 5.3 75 0.0 0 0.0 0.7 2.6 323
14/01/2021 6:30 5.1 76 0.0 0 0.0 0.6 2.3 317
14/01/2021 6:40 5.0 76 0.0 0 0.0 0.6 2.2 264
14/01/2021 6:50 4.8 77 0.0 0 0.0 0.8 2.8 280
14/01/2021 7:00 4.7 78 0.0 0 0.0 0.8 2.7 328
14/01/2021 7:10 4.8 77 0.0 0 0.0 1.1 3.9 335
14/01/2021 7:20 4.7 77 0.0 0 0.0 1.1 3.8 350
14/01/2021 7:30 4.8 77 0.0 0 0.0 1.3 4.8 343
14/01/2021 7:40 4.7 77 0.0 0 0.0 0.7 2.6 2
14/01/2021 7:50 4.7 77 0.0 0 0.0 1.5 5.5 2
14/01/2021 8:00 5.2 76 12.8 0 0.0 1.8 6.5 348
14/01/2021 8:10 5.3 75 21.5 0 0.0 1.0 3.7 343
14/01/2021 8:20 5.3 76 26.8 0 0.0 1.6 5.7 330
14/01/2021 8:30 5.5 75 52.8 196 0.0 1.6 5.6 325
14/01/2021 8:40 5.8 73 81.4 210 0.0 1.9 6.9 321
14/01/2021 8:50 5.9 72 71.7 36 0.0 2.4 8.5 326
14/01/2021 9:00 5.9 72 77.1 144 0.0 1.8 6.6 336
14/01/2021 9:10 6.1 72 150.1 378 0.0 2.1 7.5 312
14/01/2021 9:20 6.5 70 162.9 318 0.0 1.7 6.1 350
14/01/2021 9:30 6.7 69 192.3 370 0.0 1.6 5.7 352
14/01/2021 9:40 7.3 67 331.5 600 0.0 2.2 7.8 339
14/01/2021 9:50 7.4 66 212.8 398 0.0 2.0 7.3 342
14/01/2021 10:00 7.1 68 276.7 506 0.0 2.0 7.3 331
14/01/2021 10:10 7.7 66 251.2 426 0.0 2.0 7.1 328
14/01/2021 10:20 7.2 67 153.9 40 0.0 2.5 9.1 330
14/01/2021 10:30 7.1 68 263.9 312 0.0 2.4 8.5 316
14/01/2021 10:40 7.5 66 205.2 144 0.0 1.7 6.1 303
14/01/2021 10:50 7.6 66 291.0 334 0.0 1.7 6.0 327
14/01/2021 11:00 8.5 64 431.6 572 0.0 2.4 8.6 312
14/01/2021 11:10 8.6 62 456.3 588 0.0 2.5 9.0 323
14/01/2021 11:20 9.1 60 470.8 600 0.0 2.6 9.2 314
14/01/2021 11:30 8.8 60 470.7 600 0.0 2.5 9.1 327
14/01/2021 11:40 9.1 59 471.3 600 0.0 2.8 10.1 331
14/01/2021 11:50 9.2 59 474.5 600 0.0 2.8 9.9 330
14/01/2021 12:00 9.4 58 476.2 600 0.0 2.1 7.4 318
14/01/2021 12:10 9.7 57 479.5 600 0.0 2.5 9.0 313
14/01/2021 12:20 9.5 57 475.2 600 0.1 2.6 9.3 300
14/01/2021 12:30 9.6 55 474.8 600 0.0 2.7 9.8 311
14/01/2021 12:40 10.0 53 472.8 600 0.0 1.8 6.3 311
14/01/2021 12:50 10.4 52 466.5 600 0.0 1.9 6.8 316
14/01/2021 13:00 10.3 51 459.8 600 0.0 1.9 6.8 332
14/01/2021 13:10 10.3 51 453.2 600 0.0 2.1 7.4 320
14/01/2021 13:20 10.4 51 446.0 600 0.0 1.9 6.7 303
14/01/2021 13:30 10.6 51 434.0 600 0.0 2.4 8.7 328
14/01/2021 13:40 10.3 53 426.5 600 0.0 2.4 8.5 311
14/01/2021 13:50 10.0 55 456.1 600 0.0 2.7 9.7 287
14/01/2021 14:00 9.7 57 227.6 174 0.0 2.1 7.6 294
14/01/2021 14:10 8.8 61 92.4 0 0.0 1.7 6.2 310
14/01/2021 14:20 8.3 64 75.2 0 0.0 1.8 6.6 331
14/01/2021 14:30 8.1 65 110.3 0 0.0 1.7 6.2 356
14/01/2021 14:40 8.4 65 109.7 0 0.0 1.4 5.0 357
14/01/2021 14:50 8.4 66 133.3 66 0.0 2.3 8.2 316
14/01/2021 15:00 8.2 67 80.1 16 0.0 1.4 4.9 320
14/01/2021 15:10 7.8 69 111.0 148 0.0 2.2 7.8 322
14/01/2021 15:20 8.0 69 146.5 296 0.0 1.6 5.9 326
14/01/2021 15:30 8.5 68 191.6 522 0.0 2.1 7.7 330
14/01/2021 15:40 8.5 68 156.8 398 0.0 1.9 6.8 320
14/01/2021 15:50 8.9 67 201.5 600 0.0 1.7 6.0 314
14/01/2021 16:00 9.0 66 172.3 600 0.0 1.6 5.7 305
14/01/2021 16:10 8.7 68 81.9 354 0.0 1.3 4.5 293
14/01/2021 16:20 7.7 72 25.1 0 0.0 1.3 4.6 305
14/01/2021 16:30 7.2 75 21.5 0 0.0 1.2 4.4 280
14/01/2021 16:40 7.1 76 11.5 0 0.0 1.9 6.9 292
14/01/2021 16:50 7.0 76 0.0 0 0.0 1.1 4.1 263
14/01/2021 17:00 6.9 76 0.0 0 0.0 2.3 8.1 264
14/01/2021 17:10 6.5 79 0.0 0 0.0 2.4 8.7 268
14/01/2021 17:20 6.4 80 0.0 0 0.0 2.3 8.4 270
14/01/2021 17:30 6.3 83 0.0 0 0.0 2.6 9.4 270
14/01/2021 17:40 6.3 83 0.0 0 0.0 3.4 12.2 266
14/01/2021 17:50 6.3 85 0.0 0 0.0 2.6 9.4 264
14/01/2021 18:00 6.1 89 0.0 0 0.0 3.0 10.6 270
14/01/2021 18:10 5.9 94 0.0 0 0.0 2.4 8.5 268
14/01/2021 18:20 5.7 97 0.0 0 0.0 2.6 9.2 272
14/01/2021 18:30 5.8 97 0.0 0 0.0 2.5 8.9 273
14/01/2021 18:40 5.8 97 0.0 0 0.0 1.9 7.0 281
14/01/2021 18:50 5.8 97 0.0 0 0.0 1.9 6.9 278
14/01/2021 19:00 6.0 96 0.0 0 0.1 2.1 7.6 277
14/01/2021 19:10 6.1 96 0.0 0 0.0 2.1 7.6 278
14/01/2021 19:20 6.0 97 0.0 0 0.0 2.2 8.0 279
14/01/2021 19:30 6.1 97 0.0 0 0.0 2.2 8.0 284
14/01/2021 19:40 6.1 96 0.0 0 0.0 1.5 5.3 289
14/01/2021 19:50 6.2 97 0.0 0 0.0 1.6 5.8 283
14/01/2021 20:00 6.4 97 0.0 0 0.1 1.6 5.6 299
14/01/2021 20:10 6.2 97 0.0 0 0.0 1.3 4.7 291
14/01/2021 20:20 6.2 97 0.0 0 0.0 1.1 4.1 314
14/01/2021 20:30 6.2 97 0.0 0 0.0 1.6 5.9 294
14/01/2021 20:40 6.5 96 0.0 0 0.0 1.5 5.3 333
14/01/2021 20:50 6.5 96 0.0 0 0.0 1.8 6.4 328
14/01/2021 21:00 6.8 95 0.0 0 0.0 1.2 4.3 267
14/01/2021 21:10 6.8 96 0.0 0 0.0 1.3 4.6 294
14/01/2021 21:20 6.6 97 0.0 0 0.0 1.5 5.5 319
14/01/2021 21:30 6.7 97 0.0 0 0.1 1.1 3.9 322
14/01/2021 21:40 6.7 97 0.0 0 0.0 1.0 3.7 318
14/01/2021 21:50 6.6 97 0.0 0 0.0 1.0 3.4 305
14/01/2021 22:00 6.5 97 0.0 0 0.1 1.1 3.9 309
14/01/2021 22:10 6.5 97 0.0 0 0.0 0.9 3.3 339
14/01/2021 22:20 6.8 93 0.0 0 0.0 1.4 5.1 312
14/01/2021 22:30 7.1 87 0.0 0 0.0 1.0 3.6 319
14/01/2021 22:40 7.1 84 0.0 0 0.0 1.6 5.8 347
14/01/2021 22:50 7.3 81 0.0 0 0.0 1.8 6.3 339
14/01/2021 23:00 7.2 80 0.0 0 0.0 1.4 5.0 323
14/01/2021 23:10 7.2 81 0.0 0 0.0 1.5 5.4 350
14/01/2021 23:20 7.1 78 0.0 0 0.0 1.2 4.5 333
14/01/2021 23:30 7.0 78 0.0 0 0.0 1.4 5.0 346
14/01/2021 23:40 6.8 78 0.0 0 0.0 1.4 5.2 348
14/01/2021 23:50 6.8 76 0.0 0 0.0 2.1 7.6 341
Anterior Página 1 de 1 Siguiente

NOTA: Tipo de datos según el color:
   - Valores diarios o 10 minutos correctos
   - Valores diarios calculados a partir de un número de datos 10 minutos menor que 144 y mayor que 120, o de un número de datos semihorarios menor que 48 y mayor que 40 (caso de las estaciones de INTIA Y Ministerio)
   - Valores diez minutos estimados


Contacto        Enlaces        Aviso legal